Elkview, West Virginia
Current Conditions -  °F | °C
As of 11:54 PM on Wednesday 22 Oct 2014 (Local Time) from KCRW Reporting Station
Overcast Overcast  
Wind Chill: 44°   Ceiling: 3000
Heat Index: 48°   Visibility: 10mi
Dew Point: 42°   Wind: 8mph
Humidity: 80%   Direction: 310°NW
Pressure: 30.2"   Gusts: NA
Location:  38.44°N, 81.48°W
Report Text: KCRW 230354Z 31007KT 10SM OVC030 09/06 A3020 RMK AO2 SLP228 T00890056
Loading
Personal Weather Stations






























Interactive Weather Map
Tropical Storm Tracking
New forecast layout! Learn more

10-Day Weather Forecast

Advertisements
Track Severe Weather on mobile